sensor_id;sensor_type;location;lat;lon;timestamp;pressure;altitude;pressure_sealevel;temperature;humidity
13709;BME280;54933;51.908;7.730;2023-02-22T00:00:46;100943.31;;;20.40;75.36
13709;BME280;54933;51.908;7.730;2023-02-22T00:03:17;100933.56;;;20.39;75.18
13709;BME280;54933;51.908;7.730;2023-02-22T00:05:45;100937.09;;;20.39;75.43
13709;BME280;54933;51.908;7.730;2023-02-22T00:08:17;100939.59;;;20.41;75.32
13709;BME280;54933;51.908;7.730;2023-02-22T00:10:43;100927.13;;;20.40;75.16
13709;BME280;54933;51.908;7.730;2023-02-22T00:13:10;100926.31;;;20.39;75.27
13709;BME280;54933;51.908;7.730;2023-02-22T00:15:37;100928.78;;;20.41;75.12
13709;BME280;54933;51.908;7.730;2023-02-22T00:18:06;100923.59;;;20.39;75.13
13709;BME280;54933;51.908;7.730;2023-02-22T00:20:34;100915.50;;;20.39;75.27
13709;BME280;54933;51.908;7.730;2023-02-22T00:23:03;100923.59;;;20.39;75.28
13709;BME280;54933;51.908;7.730;2023-02-22T00:25:31;100917.16;;;20.40;75.28
13709;BME280;54933;51.908;7.730;2023-02-22T00:27:57;100910.91;;;20.40;75.32
13709;BME280;54933;51.908;7.730;2023-02-22T00:30:25;100909.28;;;20.39;75.21
13709;BME280;54933;51.908;7.730;2023-02-22T00:32:54;100916.31;;;20.40;75.21
13709;BME280;54933;51.908;7.730;2023-02-22T00:35:22;100910.91;;;20.40;75.27
13709;BME280;54933;51.908;7.730;2023-02-22T00:37:48;100906.38;;;20.40;74.94
13709;BME280;54933;51.908;7.730;2023-02-22T00:40:18;100907.41;;;20.39;75.11
13709;BME280;54933;51.908;7.730;2023-02-22T00:42:44;100909.06;;;20.40;75.06
13709;BME280;54933;51.908;7.730;2023-02-22T00:45:11;100918.22;;;20.39;75.17
13709;BME280;54933;51.908;7.730;2023-02-22T00:47:36;100906.38;;;20.40;75.08
13709;BME280;54933;51.908;7.730;2023-02-22T00:50:02;100904.72;;;20.39;75.13
13709;BME280;54933;51.908;7.730;2023-02-22T00:52:27;100900.13;;;20.40;75.14
13709;BME280;54933;51.908;7.730;2023-02-22T00:54:56;100892.88;;;20.40;75.04
13709;BME280;54933;51.908;7.730;2023-02-22T00:57:22;100888.53;;;20.39;74.93
13709;BME280;54933;51.908;7.730;2023-02-22T00:59:48;100881.22;;;20.40;75.00
13709;BME280;54933;51.908;7.730;2023-02-22T01:02:13;100884.78;;;20.40;75.00
13709;BME280;54933;51.908;7.730;2023-02-22T01:04:39;100890.16;;;20.40;75.00
13709;BME280;54933;51.908;7.730;2023-02-22T01:07:04;100883.13;;;20.39;75.13
13709;BME280;54933;51.908;7.730;2023-02-22T01:09:29;100873.97;;;20.40;75.09
13709;BME280;54933;51.908;7.730;2023-02-22T01:11:55;100882.06;;;20.40;75.16
13709;BME280;54933;51.908;7.730;2023-02-22T01:14:22;100879.38;;;20.40;75.17
13709;BME280;54933;51.908;7.730;2023-02-22T01:16:48;100869.41;;;20.41;75.08
13709;BME280;54933;51.908;7.730;2023-02-22T01:19:14;100866.94;;;20.39;74.86
13709;BME280;54933;51.908;7.730;2023-02-22T01:21:40;100864.81;;;20.41;75.04
13709;BME280;54933;51.908;7.730;2023-02-22T01:24:05;100864.81;;;20.41;74.73
13709;BME280;54933;51.908;7.730;2023-02-22T01:26:31;100861.31;;;20.41;75.03
13709;BME280;54933;51.908;7.730;2023-02-22T01:28:56;100860.25;;;20.42;75.01
13709;BME280;54933;51.908;7.730;2023-02-22T01:31:21;100857.78;;;20.40;75.04
13709;BME280;54933;51.908;7.730;2023-02-22T01:33:48;100851.34;;;20.41;75.02
13709;BME280;54933;51.908;7.730;2023-02-22T01:36:15;100859.44;;;20.41;74.90
13709;BME280;54933;51.908;7.730;2023-02-22T01:38:40;100854.88;;;20.42;75.25
13709;BME280;54933;51.908;7.730;2023-02-22T01:41:06;100851.34;;;20.41;74.98
13709;BME280;54933;51.908;7.730;2023-02-22T01:43:31;100856.72;;;20.41;74.91
13709;BME280;54933;51.908;7.730;2023-02-22T01:48:35;100845.94;;;20.41;75.01
13709;BME280;54933;51.908;7.730;2023-02-22T01:53:37;100838.66;;;20.42;74.76
13709;BME280;54933;51.908;7.730;2023-02-22T01:56:04;100841.38;;;20.42;75.13
13709;BME280;54933;51.908;7.730;2023-02-22T01:58:32;100834.13;;;20.42;74.83
13709;BME280;54933;51.908;7.730;2023-02-22T02:00:59;100832.44;;;20.41;74.96
13709;BME280;54933;51.908;7.730;2023-02-22T02:03:28;100821.63;;;20.41;74.90
13709;BME280;54933;51.908;7.730;2023-02-22T02:05:57;100827.88;;;20.42;74.90
13709;BME280;54933;51.908;7.730;2023-02-22T02:11:08;100832.44;;;20.41;74.80
13709;BME280;54933;51.908;7.730;2023-02-22T02:13:34;100827.03;;;20.41;74.95
13709;BME280;54933;51.908;7.730;2023-02-22T02:15:59;100821.63;;;20.41;75.06
13709;BME280;54933;51.908;7.730;2023-02-22T02:18:25;100823.31;;;20.42;74.70
13709;BME280;54933;51.908;7.730;2023-02-22T02:32:27;100813.53;;;20.41;74.82
13709;BME280;54933;51.908;7.730;2023-02-22T02:35:00;100812.75;;;20.41;74.53
13709;BME280;54933;51.908;7.730;2023-02-22T02:40:48;100812.53;;;20.42;74.98
13709;BME280;54933;51.908;7.730;2023-02-22T02:43:52;100810.03;;;20.41;75.03
13709;BME280;54933;51.908;7.730;2023-02-22T02:46:39;100803.81;;;20.40;74.96
13709;BME280;54933;51.908;7.730;2023-02-22T02:49:11;100798.41;;;20.40;74.75
13709;BME280;54933;51.908;7.730;2023-02-22T02:51:45;100801.94;;;20.41;74.78
13709;BME280;54933;51.908;7.730;2023-02-22T02:54:13;100793.00;;;20.40;74.97
13709;BME280;54933;51.908;7.730;2023-02-22T02:56:40;100793.00;;;20.40;74.86
13709;BME280;54933;51.908;7.730;2023-02-22T02:59:28;100795.69;;;20.40;74.80
13709;BME280;54933;51.908;7.730;2023-02-22T03:02:22;100797.56;;;20.40;74.79
13709;BME280;54933;51.908;7.730;2023-02-22T03:13:29;100778.66;;;20.40;74.96
13709;BME280;54933;51.908;7.730;2023-02-22T03:16:24;100770.56;;;20.40;74.88
13709;BME280;54933;51.908;7.730;2023-02-22T03:19:07;100771.41;;;20.40;74.76
13709;BME280;54933;51.908;7.730;2023-02-22T03:24:36;100763.31;;;20.40;74.85
13709;BME280;54933;51.908;7.730;2023-02-22T03:27:11;100764.38;;;20.39;74.75
13709;BME280;54933;51.908;7.730;2023-02-22T03:29:41;100753.56;;;20.39;74.85
13709;BME280;54933;51.908;7.730;2023-02-22T03:32:12;100745.47;;;20.39;74.75
13709;BME280;54933;51.908;7.730;2023-02-22T03:34:43;100745.47;;;20.39;74.97
13709;BME280;54933;51.908;7.730;2023-02-22T03:37:19;100749.00;;;20.40;74.85
13709;BME280;54933;51.908;7.730;2023-02-22T03:39:48;100746.28;;;20.40;75.05
13709;BME280;54933;51.908;7.730;2023-02-22T03:42:25;100743.59;;;20.40;74.90
13709;BME280;54933;51.908;7.730;2023-02-22T03:44:57;100743.59;;;20.40;74.88
13709;BME280;54933;51.908;7.730;2023-02-22T03:47:31;100742.78;;;20.39;74.96
13709;BME280;54933;51.908;7.730;2023-02-22T03:50:04;100746.50;;;20.38;74.95
13709;BME280;54933;51.908;7.730;2023-02-22T03:52:33;100748.19;;;20.39;74.97
13709;BME280;54933;51.908;7.730;2023-02-22T03:54:59;100744.84;;;20.37;74.93
13709;BME280;54933;51.908;7.730;2023-02-22T03:57:27;100741.31;;;20.37;75.01
13709;BME280;54933;51.908;7.730;2023-02-22T03:59:54;100743.81;;;20.38;75.06
13709;BME280;54933;51.908;7.730;2023-02-22T04:02:19;100744.84;;;20.37;75.00
13709;BME280;54933;51.908;7.730;2023-02-22T04:04:45;100734.06;;;20.37;75.19
13709;BME280;54933;51.908;7.730;2023-02-22T04:07:11;100737.78;;;20.36;75.11
13709;BME280;54933;51.908;7.730;2023-02-22T04:09:36;100727.00;;;20.36;74.84
13709;BME280;54933;51.908;7.730;2023-02-22T04:12:02;100728.66;;;20.37;74.98
13709;BME280;54933;51.908;7.730;2023-02-22T04:14:28;100730.31;;;20.38;75.18
13709;BME280;54933;51.908;7.730;2023-02-22T04:16:54;100732.38;;;20.36;75.14
13709;BME280;54933;51.908;7.730;2023-02-22T04:19:19;100716.19;;;20.36;75.14
13709;BME280;54933;51.908;7.730;2023-02-22T04:21:44;100724.28;;;20.36;74.98
13709;BME280;54933;51.908;7.730;2023-02-22T04:24:10;100721.59;;;20.36;75.06
13709;BME280;54933;51.908;7.730;2023-02-22T04:26:35;100728.66;;;20.37;74.64
13709;BME280;54933;51.908;7.730;2023-02-22T04:29:01;100724.28;;;20.36;75.03
13709;BME280;54933;51.908;7.730;2023-02-22T04:31:26;100724.28;;;20.36;75.14
13709;BME280;54933;51.908;7.730;2023-02-22T04:33:51;100725.13;;;20.37;75.19
13709;BME280;54933;51.908;7.730;2023-02-22T04:36:17;100715.38;;;20.36;74.98
13709;BME280;54933;51.908;7.730;2023-02-22T04:38:42;100716.19;;;20.36;74.97
13709;BME280;54933;51.908;7.730;2023-02-22T04:41:08;100717.88;;;20.37;75.06
13709;BME280;54933;51.908;7.730;2023-02-22T04:43:33;100718.72;;;20.38;75.16
13709;BME280;54933;51.908;7.730;2023-02-22T04:45:59;100720.56;;;20.37;74.98
13709;BME280;54933;51.908;7.730;2023-02-22T04:48:24;100715.38;;;20.36;74.92
13709;BME280;54933;51.908;7.730;2023-02-22T04:50:49;100714.56;;;20.35;75.01
13709;BME280;54933;51.908;7.730;2023-02-22T04:53:16;100717.25;;;20.35;75.05
13709;BME280;54933;51.908;7.730;2023-02-22T04:55:41;100711.84;;;20.35;75.14
13709;BME280;54933;51.908;7.730;2023-02-22T04:58:06;100715.59;;;20.34;75.00
13709;BME280;54933;51.908;7.730;2023-02-22T05:00:32;100716.41;;;20.35;75.15
13709;BME280;54933;51.908;7.730;2023-02-22T05:02:57;100718.31;;;20.34;75.27
13709;BME280;54933;51.908;7.730;2023-02-22T05:05:22;100718.31;;;20.34;75.13
13709;BME280;54933;51.908;7.730;2023-02-22T05:07:48;100716.63;;;20.33;75.19
13709;BME280;54933;51.908;7.730;2023-02-22T05:10:14;100712.91;;;20.34;75.30
13709;BME280;54933;51.908;7.730;2023-02-22T05:12:39;100709.38;;;20.34;75.25
13709;BME280;54933;51.908;7.730;2023-02-22T05:15:06;100712.91;;;20.34;75.25
13709;BME280;54933;51.908;7.730;2023-02-22T05:17:32;100710.22;;;20.34;75.42
13709;BME280;54933;51.908;7.730;2023-02-22T05:19:57;100705.84;;;20.33;75.15
13709;BME280;54933;51.908;7.730;2023-02-22T05:22:23;100708.53;;;20.33;75.37
13709;BME280;54933;51.908;7.730;2023-02-22T05:24:48;100711.22;;;20.33;75.17
13709;BME280;54933;51.908;7.730;2023-02-22T05:27:16;100704.19;;;20.32;75.15
13709;BME280;54933;51.908;7.730;2023-02-22T05:29:41;100708.75;;;20.32;74.87
13709;BME280;54933;51.908;7.730;2023-02-22T05:32:06;100708.97;;;20.30;74.59
13709;BME280;54933;51.908;7.730;2023-02-22T05:34:32;100708.97;;;20.30;74.66
13709;BME280;54933;51.908;7.730;2023-02-22T05:36:57;100703.56;;;20.30;74.75
13709;BME280;54933;51.908;7.730;2023-02-22T05:39:22;100705.44;;;20.30;74.71
13709;BME280;54933;51.908;7.730;2023-02-22T05:41:48;100697.53;;;20.28;74.44
13709;BME280;54933;51.908;7.730;2023-02-22T05:44:13;100690.50;;;20.27;74.37
13709;BME280;54933;51.908;7.730;2023-02-22T05:46:38;100705.06;;;20.26;74.00
13709;BME280;54933;51.908;7.730;2023-02-22T05:49:04;100698.81;;;20.26;74.23
13709;BME280;54933;51.908;7.730;2023-02-22T05:51:29;100696.97;;;20.26;74.39
13709;BME280;54933;51.908;7.730;2023-02-22T05:53:54;100700.69;;;20.25;74.37
13709;BME280;54933;51.908;7.730;2023-02-22T05:56:21;100701.28;;;20.27;74.45
13709;BME280;54933;51.908;7.730;2023-02-22T05:58:47;100703.78;;;20.29;74.28
13709;BME280;54933;51.908;7.730;2023-02-22T06:01:12;100701.28;;;20.27;74.85
13709;BME280;54933;51.908;7.730;2023-02-22T06:03:37;100688.84;;;20.26;74.84
13709;BME280;54933;51.908;7.730;2023-02-22T06:06:03;100699.22;;;20.29;74.99
13709;BME280;54933;51.908;7.730;2023-02-22T06:08:29;100697.53;;;20.28;75.23
13709;BME280;54933;51.908;7.730;2023-02-22T06:10:54;100694.84;;;20.28;75.76
13709;BME280;54933;51.908;7.730;2023-02-22T06:13:19;100696.53;;;20.29;75.64
13709;BME280;54933;51.908;7.730;2023-02-22T06:15:45;100693.81;;;20.29;75.75
13709;BME280;54933;51.908;7.730;2023-02-22T06:18:10;100693.81;;;20.29;76.15
13709;BME280;54933;51.908;7.730;2023-02-22T06:20:35;100693.81;;;20.29;76.23
13709;BME280;54933;51.908;7.730;2023-02-22T06:23:01;100693.81;;;20.29;76.32
13709;BME280;54933;51.908;7.730;2023-02-22T06:25:28;100688.44;;;20.29;76.60
13709;BME280;54933;51.908;7.730;2023-02-22T06:27:58;100692.78;;;20.30;76.90
13709;BME280;54933;51.908;7.730;2023-02-22T06:30:25;100685.50;;;20.31;76.99
13709;BME280;54933;51.908;7.730;2023-02-22T06:32:50;100683.03;;;20.29;76.60
13709;BME280;54933;51.908;7.730;2023-02-22T06:35:16;100687.88;;;20.01;75.27
13709;BME280;54933;51.908;7.730;2023-02-22T06:37:41;100686.41;;;20.11;73.67
13709;BME280;54933;51.908;7.730;2023-02-22T06:40:07;100695.53;;;20.17;74.04
13709;BME280;54933;51.908;7.730;2023-02-22T06:42:33;100692.19;;;20.21;74.79
13709;BME280;54933;51.908;7.730;2023-02-22T06:44:58;100700.88;;;20.23;75.31
13709;BME280;54933;51.908;7.730;2023-02-22T06:47:24;100699.66;;;20.26;75.64
13709;BME280;54933;51.908;7.730;2023-02-22T06:49:56;100694.03;;;20.28;75.92
13709;BME280;54933;51.908;7.730;2023-02-22T06:52:22;100700.03;;;20.30;76.22
13709;BME280;54933;51.908;7.730;2023-02-22T06:54:48;100702.53;;;20.31;76.26
13709;BME280;54933;51.908;7.730;2023-02-22T06:57:13;100698.78;;;20.32;76.38
13709;BME280;54933;51.908;7.730;2023-02-22T06:59:39;100699.63;;;20.33;76.60
13709;BME280;54933;51.908;7.730;2023-02-22T07:02:05;100697.72;;;20.33;76.48
13709;BME280;54933;51.908;7.730;2023-02-22T07:04:30;100687.56;;;20.35;76.55
13709;BME280;54933;51.908;7.730;2023-02-22T07:06:55;100703.75;;;20.35;76.47
13709;BME280;54933;51.908;7.730;2023-02-22T07:09:21;100698.34;;;20.35;76.59
13709;BME280;54933;51.908;7.730;2023-02-22T07:11:46;100700.00;;;20.36;76.68
13709;BME280;54933;51.908;7.730;2023-02-22T07:14:11;100694.59;;;20.36;76.62
13709;BME280;54933;51.908;7.730;2023-02-22T07:16:36;100690.03;;;20.37;76.61
13709;BME280;54933;51.908;7.730;2023-02-22T07:19:02;100690.88;;;20.37;76.32
13709;BME280;54933;51.908;7.730;2023-02-22T07:21:28;100692.75;;;20.37;76.45
13709;BME280;54933;51.908;7.730;2023-02-22T07:23:57;100688.19;;;20.37;76.28
13709;BME280;54933;51.908;7.730;2023-02-22T07:26:24;100693.81;;;20.36;76.20
13709;BME280;54933;51.908;7.730;2023-02-22T07:28:49;100689.22;;;20.36;76.17
13709;BME280;54933;51.908;7.730;2023-02-22T07:31:15;100696.28;;;20.37;76.18
13709;BME280;54933;51.908;7.730;2023-02-22T07:33:41;100700.00;;;20.36;76.21
13709;BME280;54933;51.908;7.730;2023-02-22T07:36:07;100685.97;;;20.21;73.94
13709;BME280;54933;51.908;7.730;2023-02-22T07:38:32;100694.25;;;20.26;73.94
13709;BME280;54933;51.908;7.730;2023-02-22T07:40:57;100692.16;;;20.28;74.29
13709;BME280;54933;51.908;7.730;2023-02-22T07:43:25;100699.00;;;20.31;74.75
13709;BME280;54933;51.908;7.730;2023-02-22T07:45:53;100697.16;;;20.31;75.21
13709;BME280;54933;51.908;7.730;2023-02-22T07:48:20;100701.50;;;20.32;75.15
13709;BME280;54933;51.908;7.730;2023-02-22T07:50:46;100696.09;;;20.32;75.42
13709;BME280;54933;51.908;7.730;2023-02-22T07:53:31;100698.34;;;20.35;75.53
13709;BME280;54933;51.908;7.730;2023-02-22T07:55:59;100696.94;;;20.33;75.31
13709;BME280;54933;51.908;7.730;2023-02-22T07:58:26;100694.22;;;20.33;75.15
13709;BME280;54933;51.908;7.730;2023-02-22T08:00:52;100689.84;;;20.32;75.14
13709;BME280;54933;51.908;7.730;2023-02-22T08:03:19;100695.03;;;20.33;75.06
13709;BME280;54933;51.908;7.730;2023-02-22T08:05:46;100690.69;;;20.32;75.10
13709;BME280;54933;51.908;7.730;2023-02-22T08:08:12;100683.44;;;20.33;75.16
13709;BME280;54933;51.908;7.730;2023-02-22T08:10:40;100689.63;;;20.33;75.21
13709;BME280;54933;51.908;7.730;2023-02-22T08:13:05;100679.69;;;20.34;75.30
13709;BME280;54933;51.908;7.730;2023-02-22T08:15:36;100680.53;;;20.34;75.36
13709;BME280;54933;51.908;7.730;2023-02-22T08:18:03;100675.94;;;20.35;75.45
13709;BME280;54933;51.908;7.730;2023-02-22T08:20:29;100672.22;;;20.36;75.27
13709;BME280;54933;51.908;7.730;2023-02-22T08:22:55;100681.13;;;20.36;75.41
13709;BME280;54933;51.908;7.730;2023-02-22T08:25:24;100676.78;;;20.35;75.28
13709;BME280;54933;51.908;7.730;2023-02-22T08:27:51;100680.31;;;20.36;75.23
13709;BME280;54933;51.908;7.730;2023-02-22T08:30:22;100669.50;;;20.36;75.45
13709;BME280;54933;51.908;7.730;2023-02-22T08:32:49;100672.00;;;20.37;75.42
13709;BME280;54933;51.908;7.730;2023-02-22T08:35:16;100664.72;;;20.38;75.68
13709;BME280;54933;51.908;7.730;2023-02-22T08:37:53;100659.34;;;20.38;75.43
13709;BME280;54933;51.908;7.730;2023-02-22T08:40:24;100659.13;;;20.39;75.43
13709;BME280;54933;51.908;7.730;2023-02-22T08:42:49;100661.81;;;20.39;75.43
13709;BME280;54933;51.908;7.730;2023-02-22T08:45:15;100653.72;;;20.39;75.13
13709;BME280;54933;51.908;7.730;2023-02-22T08:47:40;100656.41;;;20.39;74.66
13709;BME280;54933;51.908;7.730;2023-02-22T08:50:07;100656.41;;;20.39;74.28
13709;BME280;54933;51.908;7.730;2023-02-22T08:52:32;100646.66;;;20.38;74.10
13709;BME280;54933;51.908;7.730;2023-02-22T08:54:59;100644.78;;;20.39;74.16
13709;BME280;54933;51.908;7.730;2023-02-22T08:57:24;100645.63;;;20.39;74.26
13709;BME280;54933;51.908;7.730;2023-02-22T08:59:49;100641.03;;;20.40;74.11
13709;BME280;54933;51.908;7.730;2023-02-22T09:02:18;100639.16;;;20.40;74.35
13709;BME280;54933;51.908;7.730;2023-02-22T09:04:44;100644.34;;;20.42;74.51
13709;BME280;54933;51.908;7.730;2023-02-22T09:07:10;100635.41;;;20.41;74.59
13709;BME280;54933;51.908;7.730;2023-02-22T09:09:36;100638.13;;;20.41;74.61
13709;BME280;54933;51.908;7.730;2023-02-22T09:12:02;100634.41;;;20.42;74.94
13709;BME280;54933;51.908;7.730;2023-02-22T09:14:27;100633.34;;;20.43;74.90
13709;BME280;54933;51.908;7.730;2023-02-22T09:16:52;100633.97;;;20.45;75.03
13709;BME280;54933;51.908;7.730;2023-02-22T09:19:18;100627.50;;;20.46;74.94
13709;BME280;54933;51.908;7.730;2023-02-22T09:21:43;100626.47;;;20.47;75.14
13709;BME280;54933;51.908;7.730;2023-02-22T09:24:08;100624.81;;;20.46;74.88
13709;BME280;54933;51.908;7.730;2023-02-22T09:26:35;100622.75;;;20.42;74.49
13709;BME280;54933;51.908;7.730;2023-02-22T09:29:06;100623.16;;;20.45;74.30
13709;BME280;54933;51.908;7.730;2023-02-22T09:31:37;100625.84;;;20.45;74.05
13709;BME280;54933;51.908;7.730;2023-02-22T09:34:04;100622.09;;;20.46;74.11
13709;BME280;54933;51.908;7.730;2023-02-22T09:36:39;100624.81;;;20.46;74.10
13709;BME280;54933;51.908;7.730;2023-02-22T09:39:04;100621.88;;;20.48;74.24
13709;BME280;54933;51.908;7.730;2023-02-22T09:41:46;100623.78;;;20.47;74.53
13709;BME280;54933;51.908;7.730;2023-02-22T09:44:24;100625.41;;;20.48;74.49
13709;BME280;54933;51.908;7.730;2023-02-22T09:46:51;100620.84;;;20.49;74.68
13709;BME280;54933;51.908;7.730;2023-02-22T09:49:23;100617.09;;;20.50;74.82
13709;BME280;54933;51.908;7.730;2023-02-22T09:51:54;100614.41;;;20.50;74.88
13709;BME280;54933;51.908;7.730;2023-02-22T09:54:28;100624.97;;;20.51;74.62
13709;BME280;54933;51.908;7.730;2023-02-22T09:57:00;100610.69;;;20.51;74.20
13709;BME280;54933;51.908;7.730;2023-02-22T09:59:29;100612.31;;;20.52;74.26
13709;BME280;54933;51.908;7.730;2023-02-22T10:02:01;100607.75;;;20.52;74.42
13709;BME280;54933;51.908;7.730;2023-02-22T10:04:50;100602.38;;;20.52;74.11
13709;BME280;54933;51.908;7.730;2023-02-22T10:07:22;100613.16;;;20.52;74.19
13709;BME280;54933;51.908;7.730;2023-02-22T10:09:51;100606.09;;;20.51;73.76
13709;BME280;54933;51.908;7.730;2023-02-22T10:12:37;100602.38;;;20.52;73.92
13709;BME280;54933;51.908;7.730;2023-02-22T10:15:33;100604.00;;;20.53;73.99
13709;BME280;54933;51.908;7.730;2023-02-22T10:21:19;100595.91;;;20.53;74.20
13709;BME280;54933;51.908;7.730;2023-02-22T10:24:22;100592.16;;;20.16;72.62
13709;BME280;54933;51.908;7.730;2023-02-22T10:26:51;100599.91;;;19.23;67.79
13709;BME280;54933;51.908;7.730;2023-02-22T10:29:35;100592.78;;;19.55;66.30
13709;BME280;54933;51.908;7.730;2023-02-22T10:32:05;100601.84;;;19.80;66.42
13709;BME280;54933;51.908;7.730;2023-02-22T10:34:37;100597.63;;;19.97;67.44
13709;BME280;54933;51.908;7.730;2023-02-22T10:37:23;100582.66;;;20.07;68.53
13709;BME280;54933;51.908;7.730;2023-02-22T10:39:53;100585.13;;;20.15;68.97
13709;BME280;54933;51.908;7.730;2023-02-22T10:42:21;100586.16;;;20.21;69.55
13709;BME280;54933;51.908;7.730;2023-02-22T10:44:49;100579.25;;;20.25;69.75
13709;BME280;54933;51.908;7.730;2023-02-22T10:47:14;100575.91;;;20.30;70.02
13709;BME280;54933;51.908;7.730;2023-02-22T10:49:45;100576.31;;;20.33;70.38
13709;BME280;54933;51.908;7.730;2023-02-22T10:52:24;100570.47;;;20.36;70.53
13709;BME280;54933;51.908;7.730;2023-02-22T10:54:51;100572.16;;;20.37;70.51
13709;BME280;54933;51.908;7.730;2023-02-22T10:57:20;100560.91;;;20.40;70.49
13709;BME280;54933;51.908;7.730;2023-02-22T10:59:47;100572.53;;;20.41;70.61
13709;BME280;54933;51.908;7.730;2023-02-22T11:02:20;100558.81;;;20.42;70.67
13709;BME280;54933;51.908;7.730;2023-02-22T11:04:50;100566.09;;;20.42;70.64
13709;BME280;54933;51.908;7.730;2023-02-22T11:07:32;100562.94;;;20.45;70.61
13709;BME280;54933;51.908;7.730;2023-02-22T11:10:00;100558.38;;;20.45;70.92
13709;BME280;54933;51.908;7.730;2023-02-22T11:12:32;100564.84;;;20.44;70.96
13709;BME280;54933;51.908;7.730;2023-02-22T11:17:48;100559.59;;;20.49;71.52
13709;BME280;54933;51.908;7.730;2023-02-22T11:20:29;100561.25;;;20.50;72.00
13709;BME280;54933;51.908;7.730;2023-02-22T11:22:59;100556.47;;;20.52;72.73
13709;BME280;54933;51.908;7.730;2023-02-22T11:25:28;100552.72;;;20.53;72.59
13709;BME280;54933;51.908;7.730;2023-02-22T11:27:54;100545.47;;;20.54;73.37
13709;BME280;54933;51.908;7.730;2023-02-22T11:30:28;100547.09;;;20.55;73.82
13709;BME280;54933;51.908;7.730;2023-02-22T11:33:02;100542.31;;;20.57;73.93
13709;BME280;54933;51.908;7.730;2023-02-22T11:35:47;100542.94;;;20.59;74.50
13709;BME280;54933;51.908;7.730;2023-02-22T11:38:27;100540.00;;;20.60;74.58
13709;BME280;54933;51.908;7.730;2023-02-22T11:41:06;100533.56;;;20.61;74.84
13709;BME280;54933;51.908;7.730;2023-02-22T11:43:32;100528.38;;;20.60;74.90
13709;BME280;54933;51.908;7.730;2023-02-22T11:46:06;100527.13;;;20.62;75.26
13709;BME280;54933;51.908;7.730;2023-02-22T11:48:35;100523.38;;;20.63;75.49
13709;BME280;54933;51.908;7.730;2023-02-22T11:51:20;100526.06;;;20.63;75.41
13709;BME280;54933;51.908;7.730;2023-02-22T11:54:09;100520.66;;;20.63;75.69
13709;BME280;54933;51.908;7.730;2023-02-22T11:56:47;100515.88;;;20.65;75.76
13709;BME280;54933;51.908;7.730;2023-02-22T11:59:18;100510.69;;;20.64;75.89
13709;BME280;54933;51.908;7.730;2023-02-22T12:04:35;100503.41;;;20.64;76.36
13709;BME280;54933;51.908;7.730;2023-02-22T12:07:16;100508.00;;;20.64;76.38
13709;BME280;54933;51.908;7.730;2023-02-22T12:09:54;100498.00;;;20.64;76.28
13709;BME280;54933;51.908;7.730;2023-02-22T12:12:54;100492.59;;;20.64;76.08
13709;BME280;54933;51.908;7.730;2023-02-22T12:15:46;100491.81;;;20.64;76.15
13709;BME280;54933;51.908;7.730;2023-02-22T12:21:06;100498.00;;;20.64;76.22
13709;BME280;54933;51.908;7.730;2023-02-22T12:23:43;100495.31;;;20.64;76.32
13709;BME280;54933;51.908;7.730;2023-02-22T12:26:15;100488.03;;;20.65;76.55
13709;BME280;54933;51.908;7.730;2023-02-22T12:28:53;100483.47;;;20.65;76.60
13709;BME280;54933;51.908;7.730;2023-02-22T12:31:42;100483.47;;;20.65;76.60
13709;BME280;54933;51.908;7.730;2023-02-22T12:34:30;100478.09;;;20.65;77.01
13709;BME280;54933;51.908;7.730;2023-02-22T12:37:13;100478.88;;;20.66;76.79
13709;BME280;54933;51.908;7.730;2023-02-22T12:42:23;100480.78;;;20.65;77.03
13709;BME280;54933;51.908;7.730;2023-02-22T12:44:57;100471.84;;;20.65;77.15
13709;BME280;54933;51.908;7.730;2023-02-22T12:47:31;100471.00;;;20.64;76.95
13709;BME280;54933;51.908;7.730;2023-02-22T12:50:20;100468.31;;;20.64;77.08
13709;BME280;54933;51.908;7.730;2023-02-22T12:53:19;100468.31;;;20.64;77.06
13709;BME280;54933;51.908;7.730;2023-02-22T12:55:51;100467.28;;;20.65;77.29
13709;BME280;54933;51.908;7.730;2023-02-22T13:01:01;100452.72;;;20.66;77.53
13709;BME280;54933;51.908;7.730;2023-02-22T13:03:37;100463.53;;;20.66;77.32
13709;BME280;54933;51.908;7.730;2023-02-22T13:11:37;100469.38;;;20.63;76.89
13709;BME280;54933;51.908;7.730;2023-02-22T13:14:29;100455.03;;;20.63;76.69
13709;BME280;54933;51.908;7.730;2023-02-22T13:17:05;100452.34;;;20.63;76.66
13709;BME280;54933;51.908;7.730;2023-02-22T13:19:50;100461.50;;;20.62;76.55
13709;BME280;54933;51.908;7.730;2023-02-22T13:22:27;100462.53;;;20.61;76.34
13709;BME280;54933;51.908;7.730;2023-02-22T13:25:22;100450.94;;;20.60;76.53
13709;BME280;54933;51.908;7.730;2023-02-22T13:31:00;100452.78;;;20.60;76.01
13709;BME280;54933;51.908;7.730;2023-02-22T13:34:08;100444.13;;;19.95;71.31
13709;BME280;54933;51.908;7.730;2023-02-22T13:39:49;100445.59;;;20.29;70.37
13709;BME280;54933;51.908;7.730;2023-02-22T13:50:29;100434.25;;;20.45;71.14
13709;BME280;54933;51.908;7.730;2023-02-22T13:52:59;100442.94;;;20.47;71.27
13709;BME280;54933;51.908;7.730;2023-02-22T13:55:30;100433.78;;;20.48;71.55
13709;BME280;54933;51.908;7.730;2023-02-22T13:58:02;100444.59;;;20.48;71.40
13709;BME280;54933;51.908;7.730;2023-02-22T14:00:49;100435.44;;;20.49;71.41
13709;BME280;54933;51.908;7.730;2023-02-22T14:05:54;100435.44;;;20.49;71.59
13709;BME280;54933;51.908;7.730;2023-02-22T14:10:50;100433.34;;;20.51;72.02
13709;BME280;54933;51.908;7.730;2023-02-22T14:13:18;100424.22;;;20.52;72.28
13709;BME280;54933;51.908;7.730;2023-02-22T14:18:47;100421.75;;;20.51;72.25
13709;BME280;54933;51.908;7.730;2023-02-22T14:21:20;100426.91;;;20.52;72.40
13709;BME280;54933;51.908;7.730;2023-02-22T14:24:07;100422.53;;;20.51;72.48